createdAt,value
2018-11-27T00:19:44.296Z,101731.68
2018-11-27T00:24:01.387Z,101728.17
2018-11-27T00:28:19.077Z,101730.80
2018-11-27T00:32:30.897Z,101726.08
2018-11-27T00:36:47.202Z,101724.34
2018-11-27T00:41:02.257Z,101732.10
2018-11-27T00:45:18.169Z,101723.93
2018-11-27T00:49:35.339Z,101720.89
2018-11-27T00:53:46.959Z,101726.48
2018-11-27T00:58:00.232Z,101727.31
2018-11-27T01:02:10.808Z,101724.33
2018-11-27T01:06:21.008Z,101728.24
2018-11-27T01:10:31.375Z,101733.41
2018-11-27T01:14:46.784Z,101738.59
2018-11-27T01:19:04.593Z,101743.38
2018-11-27T01:23:16.561Z,101742.97
2018-11-27T01:27:29.295Z,101741.22
2018-11-27T01:31:41.837Z,101744.70
2018-11-27T01:35:53.944Z,101740.36
2018-11-27T01:40:06.182Z,101741.69
2018-11-27T01:44:17.867Z,101737.80
2018-11-27T01:48:28.557Z,101740.80
2018-11-27T01:52:37.420Z,101746.44
2018-11-27T01:56:49.136Z,101751.20
2018-11-27T02:01:01.754Z,101753.38
2018-11-27T02:05:12.847Z,101757.69
2018-11-27T02:09:21.940Z,101751.63
2018-11-27T02:13:34.543Z,101755.08
2018-11-27T02:17:44.502Z,101752.94
2018-11-27T02:21:59.803Z,101755.13
2018-11-27T02:26:11.860Z,101762.91
2018-11-27T02:30:20.788Z,101758.56
2018-11-27T02:34:29.683Z,101762.88
2018-11-27T02:38:43.119Z,101768.48
2018-11-27T02:42:50.683Z,101769.39
2018-11-27T02:47:01.878Z,101761.16
2018-11-27T02:51:12.007Z,101762.48
2018-11-27T02:55:23.980Z,101765.50
2018-11-27T02:59:34.236Z,101765.51
2018-11-27T03:03:46.131Z,101765.06
2018-11-27T03:07:58.871Z,101768.11
2018-11-27T03:12:10.511Z,101760.75
2018-11-27T03:16:22.465Z,101764.64
2018-11-27T03:20:34.963Z,101763.77
2018-11-27T03:24:45.050Z,101768.96
2018-11-27T03:28:54.385Z,101768.11
2018-11-27T03:33:09.707Z,101765.52
2018-11-27T03:37:23.176Z,101763.77
2018-11-27T03:41:33.967Z,101764.61
2018-11-27T03:45:40.778Z,101761.16
2018-11-27T03:49:50.559Z,101761.18
2018-11-27T03:54:06.356Z,101766.34
2018-11-27T03:58:35.095Z,101764.61
2018-11-27T04:02:49.422Z,101762.02
2018-11-27T04:06:55.988Z,101770.70
2018-11-27T04:11:06.065Z,101779.35
2018-11-27T04:15:17.320Z,101789.73
2018-11-27T04:19:25.949Z,101788.42
2018-11-27T04:23:41.659Z,101794.91
2018-11-27T04:27:54.835Z,101787.56
2018-11-27T04:32:03.066Z,101789.74
2018-11-27T04:36:12.448Z,101795.77
2018-11-27T04:40:24.721Z,101800.13
2018-11-27T04:44:38.578Z,101800.13
2018-11-27T04:48:51.440Z,101801.84
2018-11-27T04:53:00.618Z,101800.98
2018-11-27T04:57:16.569Z,101809.65
2018-11-27T05:01:24.847Z,101807.92
2018-11-27T05:05:35.407Z,101803.57
2018-11-27T05:09:53.015Z,101802.72
2018-11-27T05:14:06.378Z,101807.04
2018-11-27T05:18:17.703Z,101813.51
2018-11-27T05:22:27.911Z,101809.64
2018-11-27T05:26:39.063Z,101818.73
2018-11-27T05:30:54.364Z,101824.34
2018-11-27T05:35:07.094Z,101830.83
2018-11-27T05:39:18.090Z,101824.80
2018-11-27T05:43:28.967Z,101831.25
2018-11-27T05:47:41.654Z,101835.58
2018-11-27T05:51:56.017Z,101831.66
2018-11-27T05:56:06.871Z,101832.97
2018-11-27T06:00:22.047Z,101840.77
2018-11-27T06:04:29.584Z,101850.30
2018-11-27T06:08:38.178Z,101839.88
2018-11-27T06:12:48.048Z,101868.44
2018-11-27T06:17:02.602Z,101867.56
2018-11-27T06:21:13.711Z,101874.05
2018-11-27T06:25:32.079Z,101871.90
2018-11-27T06:29:46.731Z,101880.55
2018-11-27T06:33:59.335Z,101897.39
2018-11-27T06:38:08.886Z,101900.42
2018-11-27T06:42:21.446Z,101904.35
2018-11-27T06:46:34.857Z,101900.48
2018-11-27T06:50:48.468Z,101900.03
2018-11-27T06:55:09.455Z,101906.56
2018-11-27T06:59:20.979Z,101918.63
2018-11-27T07:03:40.369Z,101922.57
2018-11-27T07:07:49.302Z,101925.16
2018-11-27T07:12:00.589Z,101932.48
2018-11-27T07:16:16.404Z,101924.72
2018-11-27T07:20:28.165Z,101923.00
2018-11-27T07:24:36.776Z,101931.17
2018-11-27T07:28:48.471Z,101930.74
2018-11-27T07:32:56.169Z,101929.89
2018-11-27T07:41:36.177Z,101938.55
2018-11-27T07:45:55.147Z,101932.09
2018-11-27T07:50:02.973Z,101941.61
2018-11-27T07:54:16.013Z,101935.97
2018-11-27T07:58:31.287Z,101948.98
2018-11-27T08:02:42.372Z,101948.98
2018-11-27T08:06:51.556Z,101953.34
2018-11-27T08:10:59.311Z,101955.06
2018-11-27T08:15:15.948Z,101948.16
2018-11-27T08:19:25.299Z,101950.70
2018-11-27T08:23:32.993Z,101958.54
2018-11-27T08:27:47.523Z,101959.39
2018-11-27T08:31:59.827Z,101958.52
2018-11-27T08:36:07.498Z,101952.88
2018-11-27T08:40:27.467Z,101958.52
2018-11-27T08:44:39.149Z,101960.70
2018-11-27T08:48:46.897Z,101961.56
2018-11-27T08:53:06.924Z,101972.78
2018-11-27T08:57:17.800Z,101976.71
2018-11-27T09:01:32.168Z,101965.48
2018-11-27T09:05:42.404Z,101978.45
2018-11-27T09:09:54.191Z,101981.09
2018-11-27T09:14:10.434Z,101973.70
2018-11-27T09:18:24.460Z,101974.17
2018-11-27T09:22:37.893Z,101973.30
2018-11-27T09:26:48.742Z,101974.58
2018-11-27T09:31:01.403Z,101967.20
2018-11-27T09:35:14.200Z,101965.03
2018-11-27T09:39:21.486Z,101974.09
2018-11-27T09:43:31.592Z,101977.61
2018-11-27T09:47:46.020Z,101974.12
2018-11-27T09:52:00.646Z,101981.91
2018-11-27T09:56:15.058Z,101985.36
2018-11-27T10:00:31.786Z,101987.08
2018-11-27T10:04:49.833Z,101984.02
2018-11-27T10:09:03.369Z,101987.39
2018-11-27T10:13:12.372Z,101988.77
2018-11-27T10:17:30.599Z,101984.42
2018-11-27T10:21:40.455Z,101990.93
2018-11-27T10:25:52.334Z,101987.11
2018-11-27T10:30:04.953Z,101989.63
2018-11-27T10:34:16.674Z,101988.72
2018-11-27T10:38:26.415Z,101996.14
2018-11-27T10:42:36.862Z,101996.09
2018-11-27T10:46:48.330Z,101988.25
2018-11-27T10:51:01.763Z,101991.36
2018-11-27T10:55:11.313Z,101994.64
2018-11-27T10:59:22.127Z,101997.09
2018-11-27T11:03:37.518Z,101995.41
2018-11-27T11:07:50.108Z,101996.74
2018-11-27T11:12:04.924Z,101993.28
2018-11-27T11:16:16.787Z,101982.53
2018-11-27T11:20:35.493Z,101979.59
2018-11-27T11:24:54.385Z,101975.60
2018-11-27T11:29:13.461Z,101959.70
2018-11-27T11:33:35.442Z,101954.92
2018-11-27T11:37:47.477Z,101952.47
2018-11-27T11:41:56.205Z,101958.31
2018-11-27T11:46:06.928Z,101950.47
2018-11-27T11:50:27.916Z,101955.45
2018-11-27T11:54:40.534Z,101960.75
2018-11-27T11:59:01.234Z,101964.66
2018-11-27T12:03:11.724Z,101975.70
2018-11-27T12:07:24.560Z,101982.38
2018-11-27T12:11:31.646Z,101980.95
2018-11-27T12:15:44.413Z,101988.12
2018-11-27T12:19:54.318Z,101978.41
2018-11-27T12:24:02.743Z,101989.41
2018-11-27T12:28:19.827Z,101995.77
2018-11-27T12:32:35.421Z,102004.62
2018-11-27T12:36:46.424Z,102008.91
2018-11-27T12:40:56.360Z,102015.20
2018-11-27T12:45:08.041Z,102009.95
2018-11-27T12:49:21.512Z,102001.70
2018-11-27T12:53:32.462Z,101989.58
2018-11-27T12:57:45.026Z,101984.61
2018-11-27T13:01:56.646Z,101988.09
2018-11-27T13:06:07.182Z,101990.66
2018-11-27T13:10:17.218Z,101993.07
2018-11-27T13:14:26.779Z,101998.28
2018-11-27T13:18:39.241Z,102000.27
2018-11-27T13:22:47.242Z,102000.91
2018-11-27T13:27:01.114Z,101999.02
2018-11-27T13:31:16.238Z,102006.59
2018-11-27T13:35:26.997Z,102000.56
2018-11-27T13:39:40.596Z,102005.42
2018-11-27T13:43:54.181Z,102003.66
2018-11-27T13:48:08.517Z,102016.30
2018-11-27T13:52:21.130Z,102004.13
2018-11-27T13:56:30.863Z,102007.09
2018-11-27T14:00:39.718Z,102014.09
2018-11-27T14:04:52.344Z,102008.07
2018-11-27T14:09:03.144Z,102017.61
2018-11-27T14:13:11.028Z,102016.79
2018-11-27T14:17:21.280Z,102021.23
2018-11-27T14:21:31.210Z,102025.55
2018-11-27T14:25:47.571Z,102033.34
2018-11-27T14:30:00.177Z,102032.44
2018-11-27T14:34:16.617Z,102025.42
2018-11-27T14:38:31.510Z,102024.98
2018-11-27T14:42:40.508Z,102023.27
2018-11-27T14:46:50.257Z,102030.31
2018-11-27T14:51:07.788Z,102030.77
2018-11-27T14:55:19.717Z,102032.48
2018-11-27T14:59:35.246Z,102024.66
2018-11-27T15:03:45.327Z,102020.30
2018-11-27T15:08:06.118Z,102020.34
2018-11-27T15:12:21.319Z,102022.12
2018-11-27T15:16:32.428Z,102020.86
2018-11-27T15:20:46.672Z,102023.98
2018-11-27T15:24:58.420Z,102014.82
2018-11-27T15:29:10.347Z,102008.38
2018-11-27T15:33:25.712Z,102010.13
2018-11-27T15:37:35.693Z,102002.30
2018-11-27T15:41:45.452Z,102002.34
2018-11-27T15:45:55.632Z,102008.44
2018-11-27T15:50:09.804Z,102016.28
2018-11-27T15:54:22.109Z,102018.47
2018-11-27T15:58:31.983Z,102027.56
2018-11-27T16:02:44.593Z,102030.20
2018-11-27T16:06:53.166Z,102024.10
2018-11-27T16:11:09.841Z,102032.78
2018-11-27T16:15:22.736Z,102041.01
2018-11-27T16:19:33.428Z,102024.93
2018-11-27T16:23:47.055Z,102025.76
2018-11-27T16:27:53.462Z,102017.97
2018-11-27T16:32:05.079Z,102011.45
2018-11-27T16:36:17.768Z,102010.59
2018-11-27T16:40:52.848Z,102014.13
2018-11-27T16:45:01.055Z,102015.00
2018-11-27T16:49:09.417Z,102020.70
2018-11-27T16:53:19.242Z,102025.05
2018-11-27T16:57:36.230Z,102022.02
2018-11-27T17:01:47.081Z,102015.59
2018-11-27T17:05:58.636Z,102022.55
2018-11-27T17:10:12.114Z,102026.47
2018-11-27T17:14:29.157Z,102023.88
2018-11-27T17:18:44.776Z,102018.27
2018-11-27T17:22:58.288Z,102015.70
2018-11-27T17:27:12.613Z,102022.66
2018-11-27T17:31:24.460Z,102025.70
2018-11-27T17:35:34.950Z,102026.14
2018-11-27T17:39:47.500Z,102029.19
2018-11-27T17:43:56.629Z,102025.29
2018-11-27T17:48:08.891Z,102016.17
2018-11-27T17:53:21.039Z,102012.29
2018-11-27T17:57:29.600Z,102015.72
2018-11-27T18:01:36.873Z,102000.56
2018-11-27T18:05:51.326Z,101997.52
2018-11-27T18:09:59.464Z,102008.77
2018-11-27T18:14:07.786Z,102020.01
2018-11-27T18:18:19.856Z,102033.85
2018-11-27T18:22:29.820Z,102021.72
2018-11-27T18:26:40.076Z,102030.78
2018-11-27T18:30:49.958Z,102028.61
2018-11-27T18:35:00.887Z,102030.33
2018-11-27T18:39:15.319Z,102033.36
2018-11-27T18:43:28.691Z,102031.55
2018-11-27T18:47:39.647Z,102033.72
2018-11-27T18:51:55.825Z,102034.14
2018-11-27T18:56:16.582Z,102036.28
2018-11-27T19:00:40.015Z,102042.31
2018-11-27T19:04:49.876Z,102045.28
2018-11-27T19:09:03.270Z,102046.09
2018-11-27T19:13:11.521Z,102039.59
2018-11-27T19:17:22.645Z,102039.16
2018-11-27T19:21:30.923Z,102037.83
2018-11-27T19:25:43.463Z,102044.70
2018-11-27T19:29:55.086Z,102035.16
2018-11-27T19:34:06.704Z,102037.65
2018-11-27T19:38:22.711Z,102036.39
2018-11-27T19:42:30.174Z,102034.17
2018-11-27T19:46:41.794Z,102038.88
2018-11-27T19:50:55.533Z,102033.30
2018-11-27T19:55:08.917Z,102025.09
2018-11-27T19:59:17.766Z,102030.20
2018-11-27T20:03:32.191Z,102022.81
2018-11-27T20:07:46.920Z,102036.70
2018-11-27T20:12:02.118Z,102031.58
2018-11-27T20:16:13.134Z,102033.38
2018-11-27T20:20:25.839Z,102033.78
2018-11-27T20:24:41.190Z,102026.89
2018-11-27T20:28:56.471Z,102033.31
2018-11-27T20:33:10.407Z,102026.39
2018-11-27T20:37:21.457Z,102025.45
2018-11-27T20:41:34.160Z,102021.03
2018-11-27T20:45:48.657Z,102015.82
2018-11-27T20:49:59.486Z,102013.17
2018-11-27T20:54:13.170Z,102010.96
2018-11-27T20:58:28.617Z,102008.72
2018-11-27T21:02:42.036Z,102015.25
2018-11-27T21:06:54.473Z,102021.70
2018-11-27T21:11:09.036Z,102016.95
2018-11-27T21:15:21.239Z,102019.92
2018-11-27T21:19:33.547Z,102010.36
2018-11-27T21:23:51.282Z,102016.80
2018-11-27T21:28:04.170Z,102022.41
2018-11-27T21:32:17.745Z,102018.10
2018-11-27T21:36:30.369Z,102018.10
2018-11-27T21:40:40.373Z,102013.58
2018-11-27T21:44:50.885Z,102012.45
2018-11-27T21:49:02.220Z,102021.92
2018-11-27T21:53:13.020Z,102014.25
2018-11-27T21:57:23.715Z,102004.27
2018-11-27T22:01:36.385Z,101993.03
2018-11-27T22:05:50.312Z,101995.74
2018-11-27T22:10:02.639Z,101989.72
2018-11-27T22:14:14.341Z,101991.52
2018-11-27T22:18:24.933Z,102000.98
2018-11-27T22:22:39.365Z,102010.07
2018-11-27T22:26:47.755Z,102015.70
2018-11-27T22:31:01.300Z,102011.41
2018-11-27T22:35:13.565Z,102010.97
2018-11-27T22:39:25.993Z,102010.97
2018-11-27T22:43:35.312Z,102008.78
2018-11-27T22:47:45.104Z,102004.45
2018-11-27T22:51:56.998Z,102002.23
2018-11-27T22:56:10.452Z,101990.05
2018-11-27T23:00:44.168Z,101995.17
2018-11-27T23:04:57.265Z,101998.58
2018-11-27T23:09:07.569Z,101987.86
2018-11-27T23:13:16.073Z,101988.75
2018-11-27T23:17:31.145Z,101985.73
2018-11-27T23:21:42.879Z,101980.61
2018-11-27T23:25:53.060Z,101980.61
2018-11-27T23:30:04.680Z,101979.75
2018-11-27T23:34:16.587Z,101980.58
2018-11-27T23:38:31.733Z,101962.26
2018-11-27T23:42:41.330Z,101962.26
2018-11-27T23:46:52.494Z,101956.23
2018-11-27T23:51:03.269Z,101948.86
2018-11-27T23:55:15.250Z,101941.11
2018-11-27T23:59:26.938Z,101944.09
